Archival Weather

Tokyo Intl

Tokyo, Japan (RJTT)

Report from: Saturday, April 1, 2023 2:00 PM JST
Current time: Friday, July 19, 2024 11:45 AM JST

Current weather – Weather history – Daily summaries
Weather forecast

Temperature20.0°C (68.0°F)
Dew point14.0°C (57.2°F)
Winds 11 kts (5.7 m/s, 12.7 mph) East (100°)
Visibility6.2 mi. (10 km)
Clouds Few clouds 3,000 ft. (914 m)
Altimeter29.94 in.Hg (1014 mB)
Relative humidity68 %
Density altitude782 ft. (238 m)
Remarks No significant changes expected in the next two hours
Flight conditions Visual Meteorological Conditions
Raw dataRJTT 010500Z 10011KT 9999 FEW030 20/14 Q1014 NOSIG
An error has occurred. This application may no longer respond until reloaded. Reload 🗙